Time;durP1;ratioP1;P1;durP2;ratioP2;P2;SDS_P1;SDS_P2;PMS_P1;PMS_P2;Temp;Humidity;BMP_temperature;BMP_pressure;BME280_temperature;BME280_humidity;BME280_pressure;Samples;Min_cycle;Max_cycle;Signal;HPM_P1;HPM_P2
2022/09/13 00:00:37;;;;;;;1.05;0.82;;;23.90;81.30;;;;;;6307521;22;20006;-80
2022/09/13 00:03:04;;;;;;;1.40;0.82;;;23.80;81.30;;;;;;6307909;22;20007;-81
2022/09/13 00:05:30;;;;;;;1.58;1.10;;;23.80;81.40;;;;;;6308072;22;20048;-82
2022/09/13 00:08:06;;;;;;;5.25;1.10;;;23.80;81.40;;;;;;6308534;22;20003;-87
2022/09/13 00:10:34;;;;;;;2.97;0.85;;;23.80;81.60;;;;;;6310373;22;20083;-87
2022/09/13 00:13:00;;;;;;;2.38;1.25;;;23.80;81.60;;;;;;6310503;22;20326;-87
2022/09/13 00:15:26;;;;;;;2.92;1.40;;;23.80;81.70;;;;;;6306971;22;20457;-85
2022/09/13 00:17:52;;;;;;;1.70;1.08;;;23.80;81.70;;;;;;6307576;22;20000;-87
2022/09/13 00:20:18;;;;;;;2.50;1.15;;;23.80;81.70;;;;;;6308291;22;19995;-89
2022/09/13 00:22:44;;;;;;;1.23;1.05;;;23.80;81.90;;;;;;6308127;22;20003;-88
2022/09/13 00:25:10;;;;;;;3.42;1.00;;;23.80;81.70;;;;;;6307768;22;19999;-86
2022/09/13 00:27:36;;;;;;;1.70;0.90;;;23.80;81.80;;;;;;6308170;22;20305;-86
2022/09/13 00:30:06;;;;;;;2.72;1.23;;;23.80;81.90;;;;;;6308061;22;19995;-87
2022/09/13 00:32:33;;;;;;;;;;;23.80;81.90;;;;;;6309315;22;19999;-86
2022/09/13 00:34:59;;;;;;;2.13;0.85;;;23.80;81.80;;;;;;6307386;22;19906;-87
2022/09/13 00:37:25;;;;;;;2.13;1.40;;;23.80;81.80;;;;;;6305735;22;20007;-87
2022/09/13 00:39:50;;;;;;;1.92;0.80;;;23.80;81.80;;;;;;6329865;22;20042;-87
2022/09/13 00:42:17;;;;;;;3.65;1.00;;;23.80;81.70;;;;;;6311925;22;20060;-88
2022/09/13 00:45:19;;;;;;;2.85;0.80;;;23.80;81.80;;;;;;6311753;22;20011;-89
2022/09/13 00:47:57;;;;;;;1.63;0.95;;;23.80;81.90;;;;;;6332903;22;20013;-87
2022/09/13 00:50:43;;;;;;;1.55;1.15;;;23.80;82.00;;;;;;6310361;22;20081;-87
2022/09/13 00:53:11;;;;;;;2.60;1.58;;;23.80;82.10;;;;;;6311356;22;20007;-87
2022/09/13 00:55:46;;;;;;;1.52;1.42;;;23.80;82.10;;;;;;6338975;22;20488;-85
2022/09/13 00:58:40;;;;;;;2.03;1.45;;;23.70;82.00;;;;;;6337925;22;20045;-86
2022/09/13 01:01:09;;;;;;;3.85;2.15;;;23.80;82.10;;;;;;6291726;22;20014;-86
2022/09/13 01:03:36;;;;;;;2.75;1.60;;;23.70;82.00;;;;;;6337298;22;20428;-87
2022/09/13 01:06:07;;;;;;;2.67;1.80;;;23.80;82.10;;;;;;6339080;22;20002;-87
2022/09/13 01:08:34;;;;;;;3.45;2.22;;;23.80;82.00;;;;;;6338374;22;19995;-85
2022/09/13 01:11:01;;;;;;;3.67;1.63;;;23.80;81.90;;;;;;6337617;22;20005;-87
2022/09/13 01:13:31;;;;;;;3.80;1.98;;;23.70;81.70;;;;;;6337756;22;20033;-85
2022/09/13 01:15:57;;;;;;;2.13;1.80;;;23.80;82.20;;;;;;6337385;22;20443;-84
2022/09/13 01:18:24;;;;;;;3.40;1.77;;;23.70;81.60;;;;;;6337851;22;20030;-86
2022/09/13 01:21:27;;;;;;;2.97;1.70;;;23.70;81.60;;;;;;6338314;22;20018;-85
2022/09/13 01:24:10;;;;;;;3.50;1.77;;;23.70;81.60;;;;;;6337892;22;20011;-85
2022/09/13 01:27:00;;;;;;;2.20;1.75;;;23.70;81.50;;;;;;6311140;22;20469;-80
2022/09/13 01:29:36;;;;;;;2.67;1.75;;;23.70;81.50;;;;;;6338455;22;20031;-79
2022/09/13 01:32:19;;;;;;;2.72;2.00;;;23.70;81.80;;;;;;6338680;22;20006;-79
2022/09/13 01:35:11;;;;;;;3.35;1.85;;;23.60;81.80;;;;;;6337957;22;20332;-81
2022/09/13 01:37:42;;;;;;;2.88;1.63;;;23.60;81.80;;;;;;6338744;22;20006;-82
2022/09/13 01:40:31;;;;;;;3.85;1.73;;;23.60;81.90;;;;;;6338689;22;20309;-79
2022/09/13 01:43:10;;;;;;;2.35;1.65;;;23.50;81.90;;;;;;6338591;22;20413;-79
2022/09/13 01:46:05;;;;;;;1.70;1.50;;;23.50;81.90;;;;;;6337349;22;20005;-80
2022/09/13 01:49:13;;;;;;;2.05;1.60;;;23.50;81.90;;;;;;6336979;22;20507;-79
2022/09/13 01:52:00;;;;;;;3.05;1.52;;;23.50;82.20;;;;;;6265564;22;20003;-79
2022/09/13 01:54:37;;;;;;;1.85;1.40;;;23.40;82.20;;;;;;6337526;22;19999;-81
2022/09/13 01:57:07;;;;;;;2.88;1.70;;;23.40;82.50;;;;;;6337837;22;20013;-81
2022/09/13 01:59:42;;;;;;;;;;;23.40;82.40;;;;;;6337817;22;20009;-81
2022/09/13 02:02:15;;;;;;;3.83;1.73;;;23.40;82.50;;;;;;6338252;22;20228;-82
2022/09/13 02:04:59;;;;;;;2.55;1.35;;;23.40;82.60;;;;;;6337489;22;20010;-82
2022/09/13 02:07:32;;;;;;;4.45;1.70;;;23.40;82.80;;;;;;6337389;22;20002;-81
2022/09/13 02:10:05;;;;;;;2.72;1.33;;;23.40;82.80;;;;;;6337710;22;20112;-82
2022/09/13 02:12:33;;;;;;;3.28;1.45;;;23.40;82.80;;;;;;6337408;22;19999;-80
2022/09/13 02:15:09;;;;;;;1.20;1.10;;;23.40;82.90;;;;;;6309709;22;20006;-81
2022/09/13 02:17:44;;;;;;;1.48;1.15;;;23.40;83.10;;;;;;6337793;22;20498;-81
2022/09/13 02:20:19;;;;;;;3.95;1.42;;;23.40;83.20;;;;;;6337538;22;20097;-80
2022/09/13 02:22:50;;;;;;;1.65;1.23;;;23.40;83.20;;;;;;6337526;22;20329;-80
2022/09/13 02:25:20;;;;;;;2.33;1.23;;;23.40;83.40;;;;;;6337644;22;20003;-80
2022/09/13 02:27:50;;;;;;;1.42;1.20;;;23.40;83.50;;;;;;6337827;22;19999;-80
2022/09/13 02:30:16;;;;;;;1.73;1.23;;;23.10;83.40;;;;;;6337605;22;19999;-80
2022/09/13 02:32:53;;;;;;;3.08;1.15;;;23.40;83.70;;;;;;6337857;22;20401;-79
2022/09/13 02:35:44;;;;;;;2.45;1.10;;;23.30;83.80;;;;;;6336657;22;20393;-80
2022/09/13 02:38:17;;;;;;;2.75;1.40;;;23.30;84.00;;;;;;6336739;22;20025;-80
2022/09/13 02:40:51;;;;;;;2.40;1.20;;;23.30;84.00;;;;;;6310400;22;20322;-79
2022/09/13 02:43:26;;;;;;;4.22;1.40;;;23.30;84.60;;;;;;6337284;22;20059;-80
2022/09/13 02:46:24;;;;;;;2.78;1.42;;;23.20;84.10;;;;;;6338173;22;20021;-79
2022/09/13 02:49:23;;;;;;;2.25;1.25;;;23.20;84.10;;;;;;6336321;22;19995;-78
2022/09/13 02:51:56;;;;;;;2.73;1.30;;;23.10;84.10;;;;;;6337061;22;19999;-79
2022/09/13 02:54:29;;;;;;;2.30;1.52;;;23.10;84.20;;;;;;6337234;22;20296;-78
2022/09/13 02:57:05;;;;;;;4.80;1.65;;;23.10;84.30;;;;;;6336551;22;20007;-78
2022/09/13 02:59:33;;;;;;;8.15;1.50;;;23.10;84.30;;;;;;6337996;22;20329;-78
2022/09/13 03:02:05;;;;;;;2.33;1.45;;;23.10;84.30;;;;;;6337873;22;20003;-78
2022/09/13 03:04:33;;;;;;;2.35;1.70;;;23.10;84.30;;;;;;6337389;22;20006;-78
2022/09/13 03:06:59;;;;;;;2.88;1.58;;;23.10;84.40;;;;;;6337475;22;19999;-79
2022/09/13 03:09:26;;;;;;;1.98;1.25;;;23.10;84.40;;;;;;6337574;22;20002;-81
2022/09/13 03:12:11;;;;;;;2.40;1.50;;;23.00;84.60;;;;;;6336822;22;20001;-78
2022/09/13 03:15:00;;;;;;;3.08;1.70;;;23.00;84.40;;;;;;6337567;22;20010;-78
2022/09/13 03:17:41;;;;;;;2.97;1.67;;;23.00;84.50;;;;;;6336935;22;20416;-78
2022/09/13 03:20:22;;;;;;;2.58;2.00;;;23.00;84.60;;;;;;6309845;22;20006;-78
2022/09/13 03:23:06;;;;;;;2.47;1.92;;;23.00;84.50;;;;;;6338153;22;20027;-79
2022/09/13 03:26:02;;;;;;;3.25;2.15;;;23.00;84.50;;;;;;6338172;22;19999;-78
2022/09/13 03:29:09;;;;;;;4.93;2.50;;;23.00;84.50;;;;;;6336479;22;20014;-79
2022/09/13 03:31:39;;;;;;;2.75;2.15;;;22.90;84.80;;;;;;6211483;23;20011;-79
2022/09/13 03:34:23;;;;;;;5.80;2.33;;;22.80;85.00;;;;;;6212110;23;20016;-79
2022/09/13 03:36:57;;;;;;;5.88;2.60;;;22.80;85.10;;;;;;6291828;22;20003;-79
2022/09/13 03:39:47;;;;;;;3.35;2.40;;;22.70;85.20;;;;;;6339196;22;20018;-79
2022/09/13 03:42:21;;;;;;;3.70;2.50;;;22.60;85.60;;;;;;6312261;22;20018;-79
2022/09/13 03:44:50;;;;;;;3.53;2.55;;;22.50;85.70;;;;;;6337950;22;20003;-80
2022/09/13 03:47:17;;;;;;;3.65;2.40;;;22.50;85.60;;;;;;6311606;22;20421;-81
2022/09/13 03:49:43;;;;;;;3.85;3.00;;;22.50;85.70;;;;;;6339719;22;20079;-81
2022/09/13 03:52:10;;;;;;;3.45;2.85;;;22.50;85.90;;;;;;6312077;22;19999;-80
2022/09/13 03:54:37;;;;;;;5.53;4.03;;;22.60;85.70;;;;;;6338227;22;20002;-82
2022/09/13 03:57:21;;;;;;;7.68;3.67;;;22.60;85.90;;;;;;6338429;22;20513;-80
2022/09/13 03:59:52;;;;;;;5.15;3.33;;;22.60;85.60;;;;;;6339272;22;20026;-79
2022/09/13 04:02:19;;;;;;;6.53;3.88;;;22.60;85.40;;;;;;6339325;22;21035;-80
2022/09/13 04:04:47;;;;;;;6.15;5.20;;;22.60;85.30;;;;;;6338015;22;20087;-80
2022/09/13 04:07:17;;;;;;;10.13;4.53;;;22.60;85.10;;;;;;6339011;22;20309;-79
2022/09/13 04:09:43;;;;;;;5.53;3.60;;;22.50;85.60;;;;;;6338853;22;20007;-79
2022/09/13 04:12:09;;;;;;;3.90;3.22;;;22.40;85.20;;;;;;6339483;22;20053;-79
2022/09/13 04:14:35;;;;;;;4.25;3.33;;;22.50;85.30;;;;;;6338365;22;20076;-79
2022/09/13 04:17:04;;;;;;;5.38;3.88;;;22.50;85.30;;;;;;6339184;22;20002;-78
2022/09/13 04:19:30;;;;;;;5.60;4.15;;;22.50;85.20;;;;;;6338055;22;20286;-78
2022/09/13 04:21:56;;;;;;;5.47;3.78;;;22.50;85.10;;;;;;6339744;22;20010;-79
2022/09/13 04:24:26;;;;;;;5.05;3.10;;;22.50;85.10;;;;;;6338936;22;20325;-79
2022/09/13 04:26:53;;;;;;;3.40;3.10;;;22.50;85.00;;;;;;6339592;22;20062;-88
2022/09/13 04:29:20;;;;;;;3.72;3.17;;;22.60;84.90;;;;;;6339406;22;20078;-88
2022/09/13 04:31:46;;;;;;;5.13;3.47;;;22.60;84.70;;;;;;6338412;22;19995;-87
2022/09/13 04:34:13;;;;;;;6.22;3.08;;;22.60;84.60;;;;;;6338993;22;19999;-86
2022/09/13 04:36:39;;;;;;;3.60;3.30;;;22.60;84.50;;;;;;6338298;22;20432;-87
2022/09/13 04:39:05;;;;;;;4.18;3.70;;;22.60;84.50;;;;;;6338020;22;20482;-87
2022/09/13 04:41:32;;;;;;;4.55;3.30;;;22.60;84.50;;;;;;6338658;22;19999;-86
2022/09/13 04:43:58;;;;;;;4.78;3.88;;;22.60;84.30;;;;;;6337271;22;20400;-87
2022/09/13 04:46:23;;;;;;;7.35;3.75;;;22.70;84.10;;;;;;6338063;22;20425;-86
2022/09/13 04:48:50;;;;;;;5.32;3.65;;;22.70;83.90;;;;;;6338366;22;20033;-88
2022/09/13 04:51:16;;;;;;;6.82;3.63;;;22.70;83.90;;;;;;6338374;22;19994;-85
2022/09/13 04:53:46;;;;;;;5.10;3.70;;;22.60;83.80;;;;;;6338585;22;20002;-87
2022/09/13 04:56:16;;;;;;;4.78;3.90;;;22.60;83.80;;;;;;6339493;22;20007;-86
2022/09/13 04:58:42;;;;;;;4.45;3.22;;;22.60;83.90;;;;;;6339934;22;20003;-88
2022/09/13 05:01:08;;;;;;;7.43;4.20;;;22.50;84.00;;;;;;6313095;22;20314;-86
2022/09/13 05:03:35;;;;;;;8.25;4.43;;;22.30;84.70;;;;;;6338091;22;20026;-82
2022/09/13 05:06:03;;;;;;;6.82;4.65;;;22.10;85.10;;;;;;6338363;22;20002;-85
2022/09/13 05:08:29;;;;;;;4.82;3.97;;;21.90;85.70;;;;;;6339380;22;20324;-85
2022/09/13 05:10:55;;;;;;;5.88;3.88;;;21.80;86.00;;;;;;6338809;22;19995;-86
2022/09/13 05:13:21;;;;;;;3.78;3.38;;;21.80;86.30;;;;;;6339181;22;20006;-86
2022/09/13 05:15:46;;;;;;;5.50;4.93;;;21.90;85.90;;;;;;6338837;22;20013;-86
2022/09/13 05:18:12;;;;;;;7.40;4.55;;;21.80;86.30;;;;;;6339171;22;20017;-86
2022/09/13 05:20:38;;;;;;;6.88;4.38;;;21.80;86.50;;;;;;6336908;22;20002;-86
2022/09/13 05:23:03;;;;;;;6.00;4.82;;;21.80;86.30;;;;;;6338542;22;20006;-87
2022/09/13 05:25:29;;;;;;;4.40;3.72;;;21.60;86.80;;;;;;6339131;22;20309;-88
2022/09/13 05:27:55;;;;;;;4.47;3.20;;;21.60;86.50;;;;;;6339211;22;20034;-86
2022/09/13 05:30:20;;;;;;;4.22;3.25;;;21.70;86.40;;;;;;6339348;22;20002;-86
2022/09/13 05:32:46;;;;;;;5.05;3.25;;;21.80;86.50;;;;;;6311337;22;20082;-81
2022/09/13 05:35:12;;;;;;;5.38;3.65;;;21.90;86.10;;;;;;6311437;22;20030;-82
2022/09/13 05:37:38;;;;;;;4.22;3.60;;;22.10;85.90;;;;;;6339121;22;20083;-84
2022/09/13 05:40:08;;;;;;;5.68;4.25;;;22.10;85.60;;;;;;6339449;22;20010;-88
2022/09/13 05:42:37;;;;;;;;;;;22.10;85.40;;;;;;6340617;22;20052;-86
2022/09/13 05:45:05;;;;;;;4.03;3.13;;;22.20;85.20;;;;;;6311036;22;19906;-85
2022/09/13 05:47:31;;;;;;;4.30;3.13;;;22.20;85.00;;;;;;6338836;22;19994;-87
2022/09/13 05:49:57;;;;;;;7.25;3.85;;;22.30;84.70;;;;;;6339600;22;19995;-85
2022/09/13 05:52:23;;;;;;;4.47;2.85;;;22.30;84.50;;;;;;6339630;22;20003;-85
2022/09/13 05:54:55;;;;;;;5.18;2.72;;;22.40;84.20;;;;;;6339603;22;19999;-85
2022/09/13 05:57:20;;;;;;;4.55;2.78;;;22.40;84.10;;;;;;6340066;22;20026;-88
2022/09/13 05:59:46;;;;;;;3.97;3.40;;;22.50;84.00;;;;;;6339647;22;20005;-88
2022/09/13 06:02:13;;;;;;;5.47;3.40;;;22.50;83.90;;;;;;6338439;22;20006;-85
2022/09/13 06:04:39;;;;;;;4.88;3.42;;;22.50;83.80;;;;;;6311593;22;20007;-86
2022/09/13 06:07:05;;;;;;;5.45;4.03;;;22.60;83.80;;;;;;6339336;22;20397;-81
2022/09/13 06:09:31;;;;;;;6.63;3.55;;;22.50;84.00;;;;;;6310469;22;20079;-81
2022/09/13 06:12:00;;;;;;;4.90;3.17;;;22.50;83.90;;;;;;6307654;22;20019;-82
2022/09/13 06:14:26;;;;;;;5.72;3.20;;;22.40;84.00;;;;;;6307954;22;20029;-82
2022/09/13 06:16:51;;;;;;;4.70;3.10;;;22.50;84.30;;;;;;6337514;22;20433;-85
2022/09/13 06:19:17;;;;;;;4.40;2.83;;;22.50;84.10;;;;;;6337706;22;20105;-84
2022/09/13 06:21:42;;;;;;;3.50;2.97;;;22.50;84.00;;;;;;6310284;22;20078;-85
2022/09/13 06:24:08;;;;;;;6.18;3.78;;;22.50;83.90;;;;;;6310403;22;20009;-85
2022/09/13 06:26:34;;;;;;;10.18;4.68;;;22.60;84.10;;;;;;6325462;22;20009;-82
2022/09/13 06:28:59;;;;;;;5.78;4.43;;;22.20;84.60;;;;;;6309313;22;20069;-82
2022/09/13 06:31:27;;;;;;;12.73;4.88;;;21.90;85.90;;;;;;6335516;22;20006;-83
2022/09/13 06:34:01;;;;;;;6.90;3.95;;;21.90;86.60;;;;;;6335925;22;20069;-82
2022/09/13 06:36:27;;;;;;;7.57;4.15;;;21.60;87.00;;;;;;6337477;22;20003;-83
2022/09/13 06:38:53;;;;;;;6.25;4.00;;;21.40;88.30;;;;;;6337468;22;20021;-83
2022/09/13 06:41:23;;;;;;;8.68;3.80;;;21.20;89.60;;;;;;6337417;22;20496;-82
2022/09/13 06:43:57;;;;;;;7.82;4.07;;;21.00;90.10;;;;;;6336821;22;20007;-83
2022/09/13 06:46:25;;;;;;;7.43;4.05;;;21.00;90.30;;;;;;6337580;22;20018;-83
2022/09/13 06:48:51;;;;;;;7.60;3.40;;;21.20;90.10;;;;;;6337146;22;19999;-87
2022/09/13 06:51:22;;;;;;;6.03;4.03;;;21.30;89.70;;;;;;6337997;22;19998;-86
2022/09/13 06:53:49;;;;;;;3.25;2.55;;;21.40;89.60;;;;;;6309765;22;20452;-85
2022/09/13 06:56:16;;;;;;;4.45;2.60;;;21.50;89.60;;;;;;6338078;22;20064;-86
2022/09/13 06:58:43;;;;;;;4.55;3.33;;;21.60;89.40;;;;;;6337481;22;19998;-84
2022/09/13 07:01:15;;;;;;;4.30;2.97;;;21.60;89.30;;;;;;6337760;22;20003;-85
2022/09/13 07:04:18;;;;;;;3.13;2.28;;;21.60;89.50;;;;;;6309865;22;20038;-87
2022/09/13 07:06:46;;;;;;;7.50;2.15;;;21.70;89.00;;;;;;6311171;22;20003;-88
2022/09/13 07:09:18;;;;;;;6.97;3.38;;;21.90;88.40;;;;;;6311877;22;20052;-85
2022/09/13 07:11:45;;;;;;;3.08;1.77;;;22.00;88.30;;;;;;6339862;22;20002;-88
2022/09/13 07:14:17;;;;;;;3.70;2.30;;;22.10;87.80;;;;;;6340632;22;19999;-90
2022/09/13 07:16:44;;;;;;;3.53;2.10;;;22.30;87.70;;;;;;6312759;22;20010;-86
2022/09/13 07:19:16;;;;;;;5.60;1.77;;;22.40;87.40;;;;;;6340330;22;19998;-88
2022/09/13 07:21:42;;;;;;;3.00;2.47;;;22.50;87.10;;;;;;6339868;22;20029;-86
2022/09/13 07:24:09;;;;;;;5.90;2.13;;;22.60;87.00;;;;;;6339916;22;19999;-87
2022/09/13 07:26:34;;;;;;;4.03;2.50;;;22.70;86.50;;;;;;6312598;22;20328;-89
2022/09/13 07:29:03;;;;;;;4.13;2.00;;;22.80;86.50;;;;;;6312519;22;19998;-87
2022/09/13 07:31:31;;;;;;;4.38;1.80;;;22.90;86.00;;;;;;6339596;22;20022;-87
2022/09/13 07:33:59;;;;;;;3.75;1.80;;;23.00;85.80;;;;;;6340399;22;20140;-89
2022/09/13 07:36:26;;;;;;;5.13;1.55;;;23.10;85.70;;;;;;6339977;22;20007;-88
2022/09/13 07:38:52;;;;;;;2.33;1.42;;;23.20;85.60;;;;;;6339960;22;20010;-88
2022/09/13 07:41:20;;;;;;;2.97;1.58;;;23.30;85.40;;;;;;6312432;22;20013;-89
2022/09/13 07:43:46;;;;;;;2.75;1.50;;;23.40;85.10;;;;;;6351905;22;20007;-87
2022/09/13 07:46:14;;;;;;;3.33;1.52;;;23.30;84.50;;;;;;6341841;22;20002;-91
2022/09/13 07:48:42;;;;;;;2.45;1.33;;;23.40;84.60;;;;;;6340728;22;20021;-89
2022/09/13 07:51:13;;;;;;;3.10;1.25;;;23.50;84.40;;;;;;6341087;22;19995;-88
2022/09/13 07:53:40;;;;;;;2.13;1.38;;;23.60;84.10;;;;;;6341662;22;20465;-91
2022/09/13 07:56:20;;;;;;;41.25;34.58;;;23.70;83.90;;;;;;6342213;22;20006;-83
2022/09/13 07:58:48;;;;;;;174.00;139.20;;;23.80;83.70;;;;;;6339509;22;20003;-84
2022/09/13 08:01:14;;;;;;;69.00;57.38;;;24.00;83.50;;;;;;6339312;22;19999;-84
2022/09/13 08:03:39;;;;;;;25.23;19.55;;;24.00;83.60;;;;;;6311190;22;20010;-84
2022/09/13 08:06:06;;;;;;;5.43;4.45;;;24.20;83.50;;;;;;6339328;22;20413;-84
2022/09/13 08:08:32;;;;;;;4.75;2.67;;;24.20;83.10;;;;;;6339136;22;20045;-83
2022/09/13 08:11:00;;;;;;;4.38;1.88;;;24.30;82.20;;;;;;6339283;22;20006;-84
2022/09/13 08:13:26;;;;;;;2.15;1.48;;;24.30;82.50;;;;;;6339262;22;20052;-84
2022/09/13 08:15:52;;;;;;;2.38;1.60;;;24.40;82.60;;;;;;6338999;22;20002;-82
2022/09/13 08:18:18;;;;;;;5.00;1.80;;;24.50;82.50;;;;;;6338701;22;20006;-84
2022/09/13 08:20:44;;;;;;;3.08;1.33;;;24.70;82.40;;;;;;6338980;22;20078;-84
2022/09/13 08:23:13;;;;;;;4.72;1.33;;;24.80;82.10;;;;;;6311569;22;20042;-83
2022/09/13 08:25:39;;;;;;;2.67;1.42;;;24.90;81.70;;;;;;6339125;22;19999;-82
2022/09/13 08:28:13;;;;;;;1.42;0.93;;;25.10;81.50;;;;;;6339590;22;19995;-82
2022/09/13 08:30:40;;;;;;;3.70;1.15;;;25.20;81.40;;;;;;6343053;22;20447;-83
2022/09/13 08:33:06;;;;;;;1.65;1.00;;;25.30;81.20;;;;;;6338551;22;19998;-82
2022/09/13 08:35:33;;;;;;;1.27;0.70;;;25.40;80.90;;;;;;6338909;22;20003;-85
2022/09/13 08:46:34;;;;;;;2.75;0.95;;;25.70;79.30;;;;;;6369858;22;20083;-82
2022/09/13 08:49:10;;;;;;;1.58;0.60;;;25.90;79.00;;;;;;6369110;22;19998;-82
2022/09/13 08:51:39;;;;;;;7.35;0.70;;;26.00;78.50;;;;;;6370341;22;19999;-82
2022/09/13 08:54:08;;;;;;;1.67;0.65;;;26.10;77.70;;;;;;6370554;22;20357;-81
2022/09/13 08:57:01;;;;;;;0.90;0.50;;;26.20;77.70;;;;;;6342561;22;20010;-82
2022/09/13 08:59:57;;;;;;;1.00;0.65;;;26.30;77.60;;;;;;6370620;22;19998;-82
2022/09/13 09:02:42;;;;;;;1.02;0.75;;;26.40;77.50;;;;;;6369861;22;20033;-82
2022/09/13 09:05:19;;;;;;;0.68;0.50;;;26.50;76.70;;;;;;6370088;22;20003;-82
2022/09/13 09:08:01;;;;;;;0.55;0.38;;;26.70;76.00;;;;;;6370610;22;20423;-82
2022/09/13 09:10:35;;;;;;;0.50;0.30;;;26.80;75.50;;;;;;6370259;22;20040;-82
2022/09/13 09:13:04;;;;;;;0.57;0.38;;;26.90;74.60;;;;;;6370709;22;20051;-82
2022/09/13 09:15:39;;;;;;;0.65;0.40;;;27.10;74.00;;;;;;6370374;22;20076;-82
2022/09/13 09:18:05;;;;;;;1.27;0.60;;;27.10;73.50;;;;;;6370516;22;20036;-81
2022/09/13 09:20:52;;;;;;;0.55;0.30;;;27.20;73.40;;;;;;6370053;22;19995;-80
2022/09/13 09:23:21;;;;;;;0.85;0.30;;;27.30;72.10;;;;;;6370269;22;20062;-82
2022/09/13 09:25:49;;;;;;;0.73;0.40;;;27.40;72.00;;;;;;6370105;22;19995;-82
2022/09/13 09:28:17;;;;;;;1.92;0.45;;;27.50;71.40;;;;;;6342398;22;20063;-82
2022/09/13 09:31:11;;;;;;;0.80;0.45;;;27.50;69.50;;;;;;6369504;22;19998;-82
2022/09/13 09:33:43;;;;;;;0.55;0.30;;;27.60;69.70;;;;;;6370224;22;20009;-82
2022/09/13 09:36:12;;;;;;;0.28;0.25;;;27.70;70.00;;;;;;6369976;22;20003;-82
2022/09/13 09:38:42;;;;;;;0.68;0.30;;;27.80;69.70;;;;;;6369936;22;20002;-82
2022/09/13 09:41:31;;;;;;;0.30;0.30;;;28.00;69.40;;;;;;6369143;22;20022;-83
2022/09/13 09:44:03;;;;;;;1.67;0.40;;;28.10;68.40;;;;;;6370016;22;19998;-83
2022/09/13 09:46:36;;;;;;;1.73;0.57;;;28.20;68.10;;;;;;6370089;22;20060;-83
2022/09/13 09:52:06;;;;;;;1.20;0.60;;;28.40;68.30;;;;;;6367581;22;20009;-81
2022/09/13 09:54:34;;;;;;;0.20;0.20;;;28.50;68.30;;;;;;6368874;22;20084;-80
2022/09/13 09:57:00;;;;;;;1.00;0.50;;;28.60;69.10;;;;;;6368467;22;20428;-80
2022/09/13 09:59:32;;;;;;;0.95;0.28;;;28.70;68.90;;;;;;6368734;22;20030;-80
2022/09/13 10:02:00;;;;;;;1.02;0.60;;;28.80;69.10;;;;;;6341257;22;20002;-80
2022/09/13 10:04:28;;;;;;;0.40;0.40;;;28.90;69.10;;;;;;6369134;22;20002;-82
2022/09/13 10:07:21;;;;;;;1.15;0.50;;;29.00;68.90;;;;;;6341253;22;20006;-83
2022/09/13 10:10:19;;;;;;;0.60;0.60;;;29.10;68.50;;;;;;6370802;22;20413;-82
2022/09/13 10:12:51;;;;;;;3.17;0.80;;;29.20;68.40;;;;;;6342415;22;20391;-83
2022/09/13 10:15:19;;;;;;;2.15;0.80;;;29.30;68.80;;;;;;6369575;22;20040;-75
2022/09/13 10:18:13;;;;;;;2.50;0.60;;;29.40;68.80;;;;;;6364742;22;20009;-76
2022/09/13 10:20:38;;;;;;;1.95;0.30;;;29.50;68.80;;;;;;6368821;22;20006;-75
2022/09/13 10:23:10;;;;;;;0.60;0.40;;;29.60;68.80;;;;;;6368943;22;20077;-83
2022/09/13 10:25:36;;;;;;;1.00;0.63;;;29.70;68.80;;;;;;6369664;22;20001;-82
2022/09/13 10:28:05;;;;;;;1.95;0.80;;;29.80;68.60;;;;;;6365767;22;20294;-83
2022/09/13 10:30:39;;;;;;;0.97;0.70;;;30.00;68.10;;;;;;6367093;22;20060;-82
2022/09/13 10:33:17;;;;;;;1.73;0.80;;;30.10;67.30;;;;;;6366989;22;20070;-82
2022/09/13 10:35:47;;;;;;;2.25;0.65;;;30.20;67.00;;;;;;6369049;22;20415;-83
2022/09/13 10:38:36;;;;;;;0.43;0.40;;;30.20;66.50;;;;;;6368886;22;20069;-83
2022/09/13 10:41:06;;;;;;;1.23;0.77;;;30.20;66.10;;;;;;6368010;22;19995;-81
2022/09/13 10:43:33;;;;;;;0.77;0.40;;;30.30;66.10;;;;;;6338396;22;20006;-81
2022/09/13 10:46:02;;;;;;;0.85;0.43;;;30.40;66.10;;;;;;6366310;22;20059;-82
2022/09/13 10:48:30;;;;;;;6.43;0.57;;;30.40;65.90;;;;;;6367636;22;20074;-82
2022/09/13 10:51:03;;;;;;;0.45;0.40;;;30.30;65.70;;;;;;6368569;22;20058;-81
2022/09/13 10:53:41;;;;;;;0.85;0.50;;;30.30;66.00;;;;;;6368164;22;20006;-82
2022/09/13 10:56:25;;;;;;;0.73;0.43;;;30.20;66.20;;;;;;6362713;22;20014;-82
2022/09/13 10:59:21;;;;;;;0.63;0.40;;;30.10;66.10;;;;;;6368613;22;19998;-82
2022/09/13 11:01:59;;;;;;;0.85;0.40;;;30.20;66.50;;;;;;6339609;22;20002;-82
2022/09/13 11:05:05;;;;;;;0.98;0.40;;;30.20;66.20;;;;;;6367447;22;20004;-82
2022/09/13 11:07:38;;;;;;;0.73;0.45;;;30.00;65.90;;;;;;6363050;22;20037;-82
2022/09/13 11:10:33;;;;;;;1.58;0.40;;;30.10;66.80;;;;;;6339108;22;20017;-74
2022/09/13 11:12:59;;;;;;;1.50;0.80;;;30.20;66.90;;;;;;6366018;22;19998;-73
2022/09/13 11:16:11;;;;;;;1.60;1.08;;;30.30;66.90;;;;;;6362283;22;20486;-80
2022/09/13 11:18:53;;;;;;;0.45;0.40;;;30.40;65.90;;;;;;6289240;22;20522;-81
2022/09/13 11:21:36;;;;;;;0.50;0.40;;;30.40;66.00;;;;;;6366330;22;20082;-81
2022/09/13 11:24:18;;;;;;;0.68;0.68;;;30.30;66.30;;;;;;6366374;22;20028;-81
2022/09/13 11:26:50;;;;;;;1.25;1.08;;;30.50;66.70;;;;;;6336907;22;20002;-80
2022/09/13 11:29:27;;;;;;;3.40;1.23;;;30.70;66.80;;;;;;6336897;22;20432;-75
2022/09/13 11:32:11;;;;;;;1.90;0.70;;;30.70;66.40;;;;;;6365187;22;20006;-75
2022/09/13 11:34:59;;;;;;;2.70;0.90;;;30.70;66.10;;;;;;6367153;22;19999;-75
2022/09/13 11:37:34;;;;;;;1.08;0.82;;;30.50;65.40;;;;;;6339522;22;20675;-76
2022/09/13 11:40:45;;;;;;;1.50;0.68;;;30.40;65.70;;;;;;6339405;22;20009;-82
2022/09/13 11:43:20;;;;;;;1.58;0.88;;;30.20;66.00;;;;;;6319101;22;20007;-81
2022/09/13 11:46:20;;;;;;;1.20;0.80;;;30.00;66.20;;;;;;6368291;22;20011;-75
2022/09/13 11:49:04;;;;;;;;;;;30.00;66.60;;;;;;6229777;22;20096;-75
2022/09/13 11:52:07;;;;;;;1.42;0.80;;;30.20;67.50;;;;;;6339343;22;19905;-76
2022/09/13 11:54:51;;;;;;;1.35;0.50;;;30.60;67.10;;;;;;6366354;22;20009;-75
2022/09/13 11:57:24;;;;;;;0.63;0.63;;;31.00;66.40;;;;;;6342175;22;20055;-82
2022/09/13 11:59:59;;;;;;;2.80;1.08;;;31.50;65.50;;;;;;6365993;22;20012;-82
2022/09/13 12:02:46;;;;;;;1.52;1.20;;;31.90;65.00;;;;;;6369219;22;20102;-83
2022/09/13 12:05:22;;;;;;;1.10;0.77;;;32.20;64.00;;;;;;6362426;22;20006;-74
2022/09/13 12:07:50;;;;;;;2.25;0.95;;;32.40;63.40;;;;;;6366161;22;20378;-82
2022/09/13 12:10:37;;;;;;;1.48;0.82;;;32.70;63.00;;;;;;6337398;22;20458;-75
2022/09/13 12:13:08;;;;;;;3.05;0.80;;;32.90;62.50;;;;;;6340382;22;20002;-81
2022/09/13 12:15:37;;;;;;;3.47;1.15;;;33.20;62.30;;;;;;6340443;22;20006;-82
2022/09/13 12:18:17;;;;;;;1.40;0.88;;;33.40;61.70;;;;;;6343064;22;20288;-76
2022/09/13 12:20:59;;;;;;;2.97;1.40;;;33.60;61.50;;;;;;6341317;22;20010;-74
2022/09/13 12:23:41;;;;;;;3.33;1.33;;;33.70;61.10;;;;;;6341787;22;20003;-76
2022/09/13 12:26:23;;;;;;;2.08;0.90;;;33.90;60.10;;;;;;6342746;22;20002;-81
2022/09/13 12:29:04;;;;;;;1.58;0.73;;;34.00;60.40;;;;;;6342273;22;20006;-76
2022/09/13 12:31:31;;;;;;;1.02;0.50;;;34.00;60.00;;;;;;6339548;22;20003;-76
2022/09/13 12:34:00;;;;;;;2.67;0.50;;;34.10;59.70;;;;;;6340443;22;20073;-82
2022/09/13 12:36:56;;;;;;;0.70;0.22;;;34.10;59.90;;;;;;6341813;22;20343;-75
2022/09/13 12:39:52;;;;;;;3.75;0.45;;;34.20;59.20;;;;;;6334978;22;20017;-78
2022/09/13 12:42:37;;;;;;;1.80;0.40;;;34.00;57.60;;;;;;6362673;22;20006;-77
2022/09/13 12:45:30;;;;;;;1.75;0.47;;;33.50;59.20;;;;;;6367871;22;20007;-81
2022/09/13 12:48:07;;;;;;;0.88;0.60;;;33.10;60.20;;;;;;6341747;22;20003;-74
2022/09/13 12:50:40;;;;;;;0.80;0.40;;;33.00;60.90;;;;;;6342060;22;20058;-81
2022/09/13 12:53:25;;;;;;;0.85;0.50;;;33.00;61.00;;;;;;6341595;22;20003;-76
2022/09/13 12:55:58;;;;;;;0.85;0.50;;;32.80;60.60;;;;;;6341512;22;20009;-76
2022/09/13 12:58:42;;;;;;;1.02;0.60;;;32.50;61.10;;;;;;6342491;22;20434;-82
2022/09/13 13:01:14;;;;;;;0.80;0.43;;;32.20;61.80;;;;;;6343021;22;20024;-81
2022/09/13 13:04:31;;;;;;;2.15;0.50;;;32.10;62.10;;;;;;6341660;22;20328;-76
2022/09/13 13:07:02;;;;;;;0.50;0.30;;;31.90;62.00;;;;;;6212335;23;20001;-80
2022/09/13 13:09:43;;;;;;;0.70;0.32;;;31.80;62.50;;;;;;6285401;22;20019;-76
2022/09/13 13:12:31;;;;;;;0.38;0.20;;;31.60;61.60;;;;;;6336373;22;20003;-85
2022/09/13 13:14:58;;;;;;;1.48;0.40;;;31.50;62.60;;;;;;6337013;22;20007;-80
2022/09/13 13:17:49;;;;;;;0.20;0.20;;;31.30;63.30;;;;;;6337595;22;20069;-74
2022/09/13 13:20:43;;;;;;;0.68;0.30;;;31.00;63.70;;;;;;6337948;22;20009;-77
2022/09/13 13:23:34;;;;;;;5.80;0.90;;;30.80;63.30;;;;;;6336702;22;19999;-77
2022/09/13 13:26:06;;;;;;;0.88;0.38;;;30.60;64.40;;;;;;6311080;22;20014;-76
2022/09/13 13:28:44;;;;;;;2.10;0.32;;;30.40;64.40;;;;;;6338326;22;19998;-76
2022/09/13 13:31:27;;;;;;;2.03;0.40;;;30.30;64.50;;;;;;6309957;22;20002;-76
2022/09/13 13:34:04;;;;;;;0.93;0.40;;;30.10;65.10;;;;;;6309642;22;20013;-74